Time;durP1;ratioP1;P1;durP2;ratioP2;P2;SDS_P1;SDS_P2;PMS_P1;PMS_P2;Temp;Humidity;BMP_temperature;BMP_pressure;BME280_temperature;BME280_humidity;BME280_pressure;Samples;Min_cycle;Max_cycle;Signal;HPM_P1;HPM_P2
2022/04/04 00:00:56;;;;;;;16.50;11.50;;;;;;;4.84;69.97;98425.15;25075;1316;3026996;-63
2022/04/04 00:03:26;;;;;;;18.30;12.50;;;;;;;5.13;68.37;98425.48;25040;1316;3026419;-62
2022/04/04 00:05:56;;;;;;;21.60;12.80;;;;;;;5.27;68.21;98434.45;25106;1316;3027055;-62
2022/04/04 00:08:27;;;;;;;17.50;11.70;;;;;;;5.28;67.98;98427.09;25043;1316;3050555;-65
2022/04/04 00:10:56;;;;;;;19.40;13.00;;;;;;;5.21;67.75;98431.27;25045;1315;3026515;-64
2022/04/04 00:13:45;;;;;;;22.00;13.70;;;;;;;4.91;68.49;98438.30;25093;1316;3049386;-65
2022/04/04 00:16:14;;;;;;;20.80;13.20;;;;;;;4.49;69.96;98445.02;25064;1316;3026643;-64
2022/04/04 00:19:05;;;;;;;17.30;11.80;;;;;;;4.35;70.49;98445.02;25063;1316;3071334;-61
2022/04/04 00:21:37;;;;;;;18.20;12.00;;;;;;;4.39;69.90;98443.45;25062;1316;3026164;-67
2022/04/04 00:24:06;;;;;;;26.00;16.90;;;;;;;4.25;70.58;98446.44;25063;1316;3027108;-65
2022/04/04 00:26:55;;;;;;;10.80;7.80;;;;;;;4.22;71.25;98447.77;25069;1316;3051895;-61
2022/04/04 00:29:25;;;;;;;14.80;8.90;;;;;;;5.21;68.94;98447.27;25056;1316;3026507;-62
2022/04/04 00:31:54;;;;;;;15.80;9.90;;;;;;;5.62;67.53;98447.05;25072;1315;3026955;-61
2022/04/04 00:34:42;;;;;;;12.60;8.80;;;;;;;5.44;66.95;98448.41;25039;1316;3053138;-62
2022/04/04 00:37:11;;;;;;;16.60;10.30;;;;;;;5.12;67.47;98453.65;25101;1316;3026727;-63
2022/04/04 00:39:42;;;;;;;16.20;9.50;;;;;;;4.87;68.31;98453.63;25067;1315;3052589;-62
2022/04/04 00:42:15;;;;;;;13.40;10.20;;;;;;;4.56;69.06;98456.24;25123;1316;3026170;-63
2022/04/04 00:44:45;;;;;;;13.40;9.90;;;;;;;4.56;68.88;98449.67;25120;1316;3049062;-61
2022/04/04 00:47:15;;;;;;;16.50;9.90;;;;;;;4.47;69.25;98458.31;25100;1315;3027048;-60
2022/04/04 00:49:45;;;;;;;14.90;9.90;;;;;;;4.28;69.64;98454.38;25104;1315;3026660;-61
2022/04/04 00:52:14;;;;;;;13.30;9.30;;;;;;;3.98;71.13;98455.73;25088;1316;3028341;-64
2022/04/04 00:54:45;;;;;;;12.80;8.70;;;;;;;3.99;70.73;98463.27;25077;1316;3053851;-62
2022/04/04 00:57:14;;;;;;;11.00;7.10;;;;;;;4.01;70.91;98456.83;25046;1316;3026641;-64
2022/04/04 01:00:05;;;;;;;12.20;7.60;;;;;;;4.79;69.71;98461.15;25123;1316;3056486;-65
2022/04/04 01:02:34;;;;;;;12.40;7.60;;;;;;;4.91;68.59;98465.71;25078;1316;3026670;-68
2022/04/04 01:05:04;;;;;;;12.80;9.00;;;;;;;4.93;68.18;98468.38;25127;1315;3029670;-63
2022/04/04 01:07:39;;;;;;;16.40;9.40;;;;;;;4.62;68.74;98467.56;25064;1316;3026750;-64
2022/04/04 01:10:09;;;;;;;12.80;8.30;;;;;;;4.34;69.73;98472.69;25036;1316;3071013;-66
2022/04/04 01:12:54;;;;;;;12.90;9.10;;;;;;;4.15;70.26;98474.66;25036;1316;3026418;-63
2022/04/04 01:15:25;;;;;;;12.20;8.80;;;;;;;4.15;70.22;98470.13;25062;1316;3054509;-63
2022/04/04 01:17:55;;;;;;;12.90;8.50;;;;;;;4.07;70.43;98473.14;25070;1316;3026476;-63
2022/04/04 01:20:25;;;;;;;12.40;8.80;;;;;;;3.89;71.00;98477.65;24702;1316;3570220;-64
2022/04/04 01:22:54;;;;;;;15.70;9.90;;;;;;;3.76;71.10;98485.40;25016;1316;3026906;-61
2022/04/04 01:25:28;;;;;;;9.70;7.20;;;;;;;3.65;72.27;98480.21;25114;1316;3026317;-62
2022/04/04 01:27:59;;;;;;;9.70;6.90;;;;;;;4.32;70.23;98484.00;25032;1316;3059306;-63
2022/04/04 01:30:31;;;;;;;11.60;8.10;;;;;;;4.54;69.15;98483.08;25109;1315;3027630;-62
2022/04/04 01:33:01;;;;;;;11.60;7.80;;;;;;;4.60;68.84;98485.02;25132;1316;3026170;-63
2022/04/04 01:35:32;;;;;;;12.10;7.90;;;;;;;4.40;69.01;98483.46;25106;1315;3027229;-62
2022/04/04 01:38:01;;;;;;;13.30;8.50;;;;;;;4.39;68.83;98487.48;25105;1316;3026243;-64
2022/04/04 01:40:31;;;;;;;12.50;8.70;;;;;;;4.17;69.29;98488.79;25123;1315;3026270;-65
2022/04/04 01:43:02;;;;;;;18.10;10.20;;;;;;;4.07;69.28;98492.39;25079;1316;3027688;-62
2022/04/04 01:48:18;;;;;;;14.00;9.30;;;;;;;3.56;71.20;98492.42;25053;1315;3051407;-62
2022/04/04 01:50:48;;;;;;;15.50;9.70;;;;;;;3.54;71.29;98497.19;25060;1316;3026205;-61
2022/04/04 01:53:26;;;;;;;14.60;9.50;;;;;;;3.40;71.74;98508.91;25095;1316;3026557;-64
2022/04/04 01:55:57;;;;;;;12.70;7.20;;;;;;;3.25;72.30;98507.86;25042;1316;3051762;-62
2022/04/04 01:58:27;;;;;;;12.10;7.70;;;;;;;3.96;70.43;98504.54;25083;1315;3026560;-64
2022/04/04 02:01:01;;;;;;;12.10;7.90;;;;;;;4.43;68.52;98508.80;25078;1316;3026251;-62
2022/04/04 02:03:33;;;;;;;12.80;7.70;;;;;;;4.65;67.71;98502.11;25070;1316;3058262;-67
2022/04/04 02:06:02;;;;;;;12.10;7.50;;;;;;;4.68;67.21;98506.14;25060;1316;3026614;-65
2022/04/04 02:08:32;;;;;;;11.60;7.70;;;;;;;4.30;67.76;98508.39;25142;1316;3026289;-62
2022/04/04 02:11:02;;;;;;;13.10;8.50;;;;;;;4.07;68.55;98512.85;25135;1316;3058860;-60
2022/04/04 02:13:32;;;;;;;13.90;8.30;;;;;;;3.92;68.87;98511.15;25425;1316;3026898;-62
2022/04/04 02:16:01;;;;;;;14.30;9.40;;;;;;;3.79;69.14;98515.04;25422;1316;3026285;-60
2022/04/04 02:18:31;;;;;;;12.90;8.50;;;;;;;3.70;69.54;98513.73;25228;1314;3026693;-60
2022/04/04 02:21:01;;;;;;;13.80;9.80;;;;;;;3.68;69.83;98518.68;25063;1316;3026851;-65
2022/04/04 02:23:30;;;;;;;17.50;10.20;;;;;;;3.67;70.22;98523.59;25081;1315;3026743;-63
2022/04/04 02:26:00;;;;;;;19.20;10.10;;;;;;;3.70;69.80;98528.26;25114;1316;3026300;-64
2022/04/04 02:28:30;;;;;;;14.70;9.30;;;;;;;3.56;70.72;98528.95;25095;1315;3069226;-63
2022/04/04 02:31:00;;;;;;;17.10;11.10;;;;;;;3.40;71.12;98532.62;25137;1316;3027055;-64
2022/04/04 02:33:30;;;;;;;14.90;9.10;;;;;;;3.43;71.64;98532.32;25092;1316;3028728;-63
2022/04/04 02:35:59;;;;;;;13.90;8.60;;;;;;;4.01;70.49;98534.93;25091;1315;3026471;-64
2022/04/04 02:38:28;;;;;;;17.50;8.30;;;;;;;4.58;68.20;98537.02;25053;1316;3026472;-62
2022/04/04 02:40:57;;;;;;;13.70;8.50;;;;;;;4.59;68.03;98537.98;25097;1315;3026718;-59
2022/04/04 02:44:54;;;;;;;16.40;9.30;;;;;;;4.34;69.18;98543.76;31334;1319;3026070;-66
2022/04/04 02:47:23;;;;;;;10.40;7.90;;;;;;;4.33;69.21;98551.45;24908;1319;3026832;-62
2022/04/04 02:49:52;;;;;;;8.30;5.50;;;;;;;4.16;69.68;98561.09;24921;1319;3026433;-63
2022/04/04 02:52:21;;;;;;;11.80;7.10;;;;;;;3.63;71.46;98570.50;24955;1319;3050774;-62
2022/04/04 02:54:50;;;;;;;9.40;6.60;;;;;;;3.44;72.36;98569.83;25014;1319;3026451;-63
2022/04/04 02:57:19;;;;;;;11.50;7.10;;;;;;;3.34;72.65;98571.70;24938;1318;3279531;-65
2022/04/04 02:59:48;;;;;;;16.40;9.30;;;;;;;3.09;73.67;98574.85;25030;1316;3026561;-61
2022/04/04 03:02:17;;;;;;;20.90;9.80;;;;;;;3.06;73.29;98573.45;25139;1316;3026608;-63
2022/04/04 03:04:47;;;;;;;20.90;9.40;;;;;;;2.96;73.37;98575.97;25081;1316;3070578;-60
2022/04/04 03:07:16;;;;;;;27.50;11.50;;;;;;;3.62;72.48;98576.94;25036;1316;3026718;-63
2022/04/04 03:09:46;;;;;;;23.20;11.50;;;;;;;3.85;70.49;98585.26;25102;1316;3050057;-63
2022/04/04 03:12:15;;;;;;;36.40;14.30;;;;;;;3.79;70.35;98594.05;25110;1316;3026638;-62
2022/04/04 03:14:45;;;;;;;35.50;14.80;;;;;;;3.60;70.56;98594.55;25096;1316;3026953;-64
2022/04/04 03:17:14;;;;;;;31.50;13.70;;;;;;;3.27;71.55;98602.44;25052;1316;3026866;-64
2022/04/04 03:19:45;;;;;;;36.40;14.00;;;;;;;3.05;72.14;98602.70;25106;1316;3069862;-61
2022/04/04 03:22:14;;;;;;;35.70;14.60;;;;;;;2.99;72.37;98599.16;25054;1316;3028738;-63
2022/04/04 03:24:44;;;;;;;35.80;13.90;;;;;;;3.01;72.44;98606.55;25116;1316;3052617;-64
2022/04/04 03:27:14;;;;;;;31.90;15.30;;;;;;;2.80;72.63;98618.14;25088;1316;3027183;-62
2022/04/04 03:29:44;;;;;;;35.40;15.00;;;;;;;2.78;72.64;98616.52;25039;1316;3027249;-63
2022/04/04 03:32:13;;;;;;;38.70;16.10;;;;;;;2.67;72.98;98628.02;25102;1316;3026820;-61
2022/04/04 03:34:42;;;;;;;28.20;11.60;;;;;;;2.51;73.69;98627.81;25060;1316;3026564;-63
2022/04/04 03:37:12;;;;;;;23.00;11.70;;;;;;;3.16;72.29;98625.59;25083;1316;3026751;-61
2022/04/04 03:39:41;;;;;;;25.20;12.30;;;;;;;3.70;70.36;98625.80;25078;1316;3026364;-60
2022/04/04 03:42:10;;;;;;;32.40;16.30;;;;;;;3.68;69.79;98627.98;25107;1316;3054576;-63
2022/04/04 03:44:39;;;;;;;44.00;20.00;;;;;;;3.38;70.43;98636.06;25086;1316;3026373;-64
2022/04/04 03:47:10;;;;;;;43.50;18.30;;;;;;;3.29;71.21;98637.18;25081;1316;3054586;-62
2022/04/04 03:49:39;;;;;;;40.30;17.00;;;;;;;3.15;71.06;98644.83;25126;1316;3026854;-65
2022/04/04 03:52:08;;;;;;;41.00;15.50;;;;;;;2.93;71.79;98647.02;25060;1316;3026790;-63
2022/04/04 03:54:38;;;;;;;28.50;14.50;;;;;;;2.75;72.89;98659.69;25097;1316;3055123;-61
2022/04/04 03:57:07;;;;;;;25.20;13.60;;;;;;;2.74;72.76;98658.36;25076;1316;3026776;-62
2022/04/04 03:59:36;;;;;;;32.00;13.80;;;;;;;2.70;72.59;98661.64;25106;1316;3050983;-60
2022/04/04 04:02:07;;;;;;;20.90;9.40;;;;;;;2.75;72.65;98666.80;25147;1316;3026688;-63
2022/04/04 04:04:36;;;;;;;27.60;10.50;;;;;;;3.20;71.47;98659.54;25045;1313;3026496;-63
2022/04/04 04:07:06;;;;;;;29.30;10.90;;;;;;;3.52;70.11;98657.45;25125;1313;3049166;-64
2022/04/04 04:09:36;;;;;;;21.40;10.10;;;;;;;3.66;69.72;98663.77;25080;1313;3027209;-64
2022/04/04 04:12:06;;;;;;;24.90;13.00;;;;;;;3.62;69.50;98667.71;25127;1313;3026422;-62
2022/04/04 04:14:35;;;;;;;34.30;11.90;;;;;;;3.35;70.57;98671.02;25154;1313;3026461;-65
2022/04/04 04:17:05;;;;;;;17.40;9.70;;;;;;;3.13;70.86;98683.34;25067;1316;3026314;-61
2022/04/04 04:22:23;;;;;;;17.20;6.90;;;;;;;2.90;71.51;98693.84;25092;1313;3056323;-64
2022/04/04 04:24:52;;;;;;;11.70;6.50;;;;;;;2.83;71.84;98689.48;25044;1313;3026718;-62
2022/04/04 04:27:21;;;;;;;13.20;7.20;;;;;;;2.83;71.61;98698.96;25117;1313;3026535;-63
2022/04/04 04:29:55;;;;;;;;;;;;;;;2.91;71.30;98700.02;25093;1313;3058362;-62
2022/04/04 04:32:25;;;;;;;17.00;8.50;;;;;;;2.75;71.96;98707.42;25088;1313;3026454;-63
2022/04/04 04:34:55;;;;;;;17.20;8.90;;;;;;;2.75;71.97;98708.30;25105;1313;3027151;-62
2022/04/04 04:37:24;;;;;;;14.00;7.50;;;;;;;2.69;72.13;98718.89;25057;1313;3026848;-63
2022/04/04 04:39:53;;;;;;;13.30;6.20;;;;;;;3.68;70.10;98711.95;25076;1313;3026395;-61
2022/04/04 04:42:24;;;;;;;11.80;5.80;;;;;;;3.97;68.07;98713.65;25081;1313;3054951;-62
2022/04/04 04:44:54;;;;;;;16.70;6.60;;;;;;;3.83;67.94;98721.53;25087;1313;3026673;-63
2022/04/04 04:47:23;;;;;;;12.30;7.00;;;;;;;3.79;68.11;98721.71;25038;1313;3026430;-63
2022/04/04 04:49:58;;;;;;;12.10;7.30;;;;;;;3.65;68.33;98725.77;25096;1313;3055137;-66
2022/04/04 04:52:27;;;;;;;19.00;8.50;;;;;;;3.39;69.21;98731.25;25136;1313;3026910;-64
2022/04/04 04:54:57;;;;;;;19.50;10.10;;;;;;;3.12;69.64;98748.31;25064;1313;3026929;-63
2022/04/04 04:57:26;;;;;;;21.00;10.10;;;;;;;2.95;70.30;98749.33;25101;1313;3026926;-63
2022/04/04 04:59:56;;;;;;;20.20;9.30;;;;;;;2.90;70.79;98754.05;25116;1313;3051764;-63
2022/04/04 05:02:26;;;;;;;19.30;9.30;;;;;;;2.72;71.16;98756.64;25141;1313;3026162;-67
2022/04/04 05:04:55;;;;;;;21.80;9.40;;;;;;;2.80;70.79;98760.16;25117;1313;3026829;-62
2022/04/04 05:07:24;;;;;;;16.30;8.80;;;;;;;2.59;71.60;98766.15;25038;1313;3026667;-65
2022/04/04 05:09:54;;;;;;;23.60;11.10;;;;;;;2.58;71.63;98772.92;25061;1313;3026236;-63
2022/04/04 05:12:23;;;;;;;22.50;10.40;;;;;;;2.49;71.87;98774.32;25136;1313;3026554;-63
2022/04/04 05:14:53;;;;;;;13.60;6.50;;;;;;;2.41;72.62;98777.23;25063;1313;3054747;-63
2022/04/04 05:17:22;;;;;;;11.80;5.80;;;;;;;3.22;71.53;98776.25;25039;1313;3026373;-66
2022/04/04 05:19:52;;;;;;;13.00;6.40;;;;;;;3.80;68.48;98772.92;25067;1313;3027052;-65
2022/04/04 05:22:21;;;;;;;10.80;5.50;;;;;;;3.86;68.34;98776.30;25113;1314;3026542;-62
2022/04/04 05:24:51;;;;;;;13.00;6.40;;;;;;;3.63;68.69;98777.49;25059;1316;3055046;-61
2022/04/04 05:27:20;;;;;;;8.50;5.30;;;;;;;3.51;69.28;98779.91;25084;1316;3027273;-63
2022/04/04 05:29:57;;;;;;;8.50;5.30;;;;;;;3.37;69.77;98785.15;25121;1313;3055496;-63
2022/04/04 05:32:28;;;;;;;5.40;4.20;;;;;;;3.02;70.46;98788.67;25048;1316;3026297;-63
2022/04/04 05:34:57;;;;;;;7.30;4.70;;;;;;;2.83;70.86;98794.65;25072;1316;3050879;-66
2022/04/04 05:37:26;;;;;;;8.30;4.90;;;;;;;2.42;71.36;98803.30;25097;1316;3026606;-64
2022/04/04 05:39:55;;;;;;;6.00;4.30;;;;;;;2.42;71.38;98805.03;25113;1316;3070394;-63
2022/04/04 05:42:25;;;;;;;6.50;4.80;;;;;;;2.24;72.26;98813.14;25052;1316;3026640;-63
2022/04/04 05:44:54;;;;;;;5.20;4.30;;;;;;;1.94;72.75;98814.88;25117;1314;3026331;-66
2022/04/04 05:47:23;;;;;;;4.60;3.90;;;;;;;1.91;73.00;98821.74;25087;1316;3070143;-62
2022/04/04 05:49:53;;;;;;;7.10;4.70;;;;;;;1.78;72.96;98824.61;25085;1316;3026060;-63
2022/04/04 05:52:25;;;;;;;5.20;3.90;;;;;;;1.86;73.60;98831.08;25125;1316;3048693;-61
2022/04/04 05:54:54;;;;;;;6.50;3.90;;;;;;;2.51;72.44;98830.23;25077;1316;3026445;-64
2022/04/04 05:57:24;;;;;;;5.40;4.00;;;;;;;3.14;70.29;98828.69;25106;1316;3026643;-63
2022/04/04 05:59:54;;;;;;;8.00;4.60;;;;;;;3.27;69.74;98837.54;25079;1313;3050292;-59
2022/04/04 06:02:26;;;;;;;6.80;5.10;;;;;;;3.30;69.48;98841.53;25098;1316;3026774;-64
2022/04/04 06:04:55;;;;;;;5.20;4.40;;;;;;;3.10;69.32;98843.23;25155;1313;3027295;-62
2022/04/04 06:07:26;;;;;;;6.50;4.50;;;;;;;2.96;69.67;98849.81;25080;1313;3026648;-61
2022/04/04 06:09:55;;;;;;;7.10;4.80;;;;;;;2.85;69.99;98861.31;25121;1313;3026568;-62
2022/04/04 06:12:25;;;;;;;6.50;5.30;;;;;;;2.92;70.28;98855.70;25095;1313;3026521;-64
2022/04/04 06:14:54;;;;;;;7.40;5.20;;;;;;;3.05;69.89;98859.66;25055;1313;3054013;-62
2022/04/04 06:17:25;;;;;;;6.70;4.80;;;;;;;2.97;69.71;98861.88;25081;1313;3027384;-64
2022/04/04 06:19:56;;;;;;;6.90;5.10;;;;;;;2.89;70.24;98870.15;25108;1313;3028426;-64
2022/04/04 06:22:25;;;;;;;7.00;5.00;;;;;;;2.73;70.71;98869.74;25176;1313;3026726;-62
2022/04/04 06:25:14;;;;;;;6.30;5.00;;;;;;;2.68;70.43;98874.25;25319;1313;3053091;-64
2022/04/04 06:27:44;;;;;;;5.90;4.90;;;;;;;2.78;70.27;98876.11;25168;1313;3026606;-62
2022/04/04 06:30:14;;;;;;;7.70;4.90;;;;;;;2.77;70.09;98877.52;25129;1313;3026793;-63
2022/04/04 06:32:48;;;;;;;8.30;5.10;;;;;;;2.74;69.81;98878.52;25130;1313;3050653;-63
2022/04/04 06:35:18;;;;;;;6.50;4.70;;;;;;;2.84;69.66;98879.88;25137;1313;3026817;-63
2022/04/04 06:37:48;;;;;;;5.40;4.30;;;;;;;2.86;69.26;98880.66;25088;1313;3069654;-64
2022/04/04 06:40:17;;;;;;;10.60;5.10;;;;;;;2.73;69.59;98888.77;25164;1313;3026610;-65
2022/04/04 06:42:46;;;;;;;7.10;4.10;;;;;;;2.80;69.53;98889.89;25085;1316;3052750;-64
2022/04/04 06:45:17;;;;;;;5.20;2.30;;;;;;;3.32;67.75;98890.28;25104;1313;3029185;-64
2022/04/04 06:47:46;;;;;;;5.70;3.20;;;;;;;3.89;64.94;98894.86;25060;1313;3027301;-63
2022/04/04 06:50:15;;;;;;;4.40;3.20;;;;;;;4.13;64.15;98900.26;25101;1313;3026787;-63
2022/04/04 06:52:49;;;;;;;6.20;4.00;;;;;;;4.10;63.73;98904.73;25113;1313;3069347;-63
2022/04/04 06:55:19;;;;;;;7.10;3.30;;;;;;;3.89;63.79;98909.06;25115;1313;3026631;-66
2022/04/04 06:57:48;;;;;;;5.70;4.00;;;;;;;3.70;62.91;98927.52;25068;1313;3026604;-64
2022/04/04 07:00:17;;;;;;;4.30;2.70;;;;;;;3.27;63.04;98922.31;25108;1313;3027249;-64
2022/04/04 07:02:47;;;;;;;4.60;2.60;;;;;;;3.14;63.64;98922.65;25062;1313;3050411;-63
2022/04/04 07:05:17;;;;;;;5.40;3.40;;;;;;;3.05;64.29;98929.08;25138;1313;3026388;-64
2022/04/04 07:07:47;;;;;;;3.70;2.90;;;;;;;3.16;64.44;98931.08;25042;1313;3026910;-63
2022/04/04 07:10:19;;;;;;;5.10;3.10;;;;;;;3.05;64.88;98939.09;25078;1313;3027355;-63
2022/04/04 07:12:49;;;;;;;7.40;3.50;;;;;;;2.95;65.08;98942.77;25101;1313;3026835;-62
2022/04/04 07:15:18;;;;;;;5.30;3.50;;;;;;;3.05;64.75;98942.04;25059;1313;3026794;-62
2022/04/04 07:17:48;;;;;;;6.90;4.10;;;;;;;3.09;64.46;98948.80;25073;1313;3055796;-64
2022/04/04 07:20:19;;;;;;;8.10;3.90;;;;;;;3.14;64.31;98949.33;25114;1313;3026517;-63
2022/04/04 07:22:48;;;;;;;6.80;3.40;;;;;;;3.30;63.79;98950.08;25033;1318;3051565;-63
2022/04/04 07:25:17;;;;;;;7.00;3.60;;;;;;;3.26;63.29;98946.94;25127;1317;3026968;-64
2022/04/04 07:27:46;;;;;;;5.50;3.40;;;;;;;3.21;62.56;98954.91;25050;1317;3054635;-62
2022/04/04 07:30:17;;;;;;;5.90;2.90;;;;;;;3.15;62.04;98964.85;25123;1313;3026613;-64
2022/04/04 07:32:47;;;;;;;6.10;3.70;;;;;;;3.20;62.45;98963.77;25066;1313;3048640;-63
2022/04/04 07:35:17;;;;;;;4.70;3.30;;;;;;;3.23;61.91;98971.99;25075;1313;3027526;-65
2022/04/04 07:37:48;;;;;;;5.50;3.30;;;;;;;3.33;61.74;98971.42;25059;1313;3026979;-64
2022/04/04 07:40:18;;;;;;;6.00;3.50;;;;;;;3.48;61.76;98972.38;25109;1313;3026745;-63
2022/04/04 07:42:47;;;;;;;6.70;3.90;;;;;;;3.67;61.67;98976.88;25098;1313;3027276;-63
2022/04/04 07:45:17;;;;;;;5.30;3.50;;;;;;;3.61;60.97;98982.45;25039;1313;3026437;-63
2022/04/04 07:47:49;;;;;;;6.00;3.30;;;;;;;3.47;60.01;98992.89;25099;1313;3059727;-67
2022/04/04 07:50:18;;;;;;;5.10;3.10;;;;;;;3.51;59.50;98984.74;25078;1313;3026594;-64
2022/04/04 07:52:48;;;;;;;3.70;2.90;;;;;;;3.64;58.80;98993.05;25095;1313;3026264;-64
2022/04/04 07:55:17;;;;;;;9.20;3.60;;;;;;;3.85;58.34;99006.79;25091;1313;3026383;-60
2022/04/04 07:58:06;;;;;;;8.00;3.10;;;;;;;3.89;57.85;99003.36;25085;1313;3048850;-67
2022/04/04 08:00:35;;;;;;;4.10;2.80;;;;;;;4.09;57.23;98998.88;25121;1313;3026646;-61
2022/04/04 08:03:05;;;;;;;4.70;3.00;;;;;;;4.35;55.75;98999.88;25071;1313;3027237;-65
2022/04/04 08:05:34;;;;;;;4.80;3.50;;;;;;;4.31;55.02;99008.03;25168;1313;3048702;-64
2022/04/04 08:08:03;;;;;;;6.70;2.80;;;;;;;4.27;54.85;99006.95;25063;1313;3026649;-64
2022/04/04 08:10:33;;;;;;;4.30;3.20;;;;;;;4.33;54.82;99004.30;25100;1313;3055415;-62
2022/04/04 08:13:02;;;;;;;5.70;3.00;;;;;;;4.24;55.26;99019.42;25045;1313;3029617;-65
2022/04/04 08:15:32;;;;;;;5.70;2.80;;;;;;;4.24;55.44;99012.11;25086;1313;3030691;-63
2022/04/04 08:18:02;;;;;;;12.10;4.50;;;;;;;4.35;55.90;99019.98;25079;1313;3057965;-63
2022/04/04 08:20:34;;;;;;;9.80;4.30;;;;;;;4.41;56.23;99021.11;25138;1313;3026980;-63
2022/04/04 08:23:04;;;;;;;11.90;4.50;;;;;;;4.61;55.83;99019.44;25084;1313;3027375;-65
2022/04/04 08:25:33;;;;;;;11.60;4.50;;;;;;;4.65;55.51;99021.85;25106;1313;3026632;-65
2022/04/04 08:28:02;;;;;;;13.10;4.60;;;;;;;4.65;54.94;99019.61;25070;1313;3049326;-65
2022/04/04 08:30:32;;;;;;;12.10;4.50;;;;;;;4.64;54.02;99023.98;25150;1313;3026503;-72
2022/04/04 08:33:01;;;;;;;12.00;4.80;;;;;;;4.86;53.61;99020.05;25149;1316;3026883;-62
2022/04/04 08:35:30;;;;;;;12.10;4.40;;;;;;;4.99;53.68;99022.10;25033;1313;3052121;-63
2022/04/04 08:37:59;;;;;;;12.20;4.60;;;;;;;4.96;53.54;99027.11;25204;1313;3026917;-63
2022/04/04 08:40:45;;;;;;;12.30;5.70;;;;;;;4.72;53.53;99034.73;25107;1313;3059326;-64
2022/04/04 08:43:14;;;;;;;12.50;6.30;;;;;;;4.81;52.93;99028.61;25095;1316;3026739;-61
2022/04/04 08:45:44;;;;;;;18.80;8.20;;;;;;;4.98;51.94;99023.86;25103;1313;3054664;-63
2022/04/04 08:48:13;;;;;;;18.70;8.90;;;;;;;5.19;51.52;99018.75;25088;1313;3029984;-64
2022/04/04 08:50:42;;;;;;;16.50;7.40;;;;;;;5.30;51.17;99026.77;25052;1313;3051574;-62
2022/04/04 08:53:12;;;;;;;14.50;6.90;;;;;;;5.09;50.57;99022.52;25133;1313;3026565;-62
2022/04/04 08:55:41;;;;;;;8.70;5.50;;;;;;;5.00;50.91;99028.80;25147;1313;3026523;-63
2022/04/04 08:58:10;;;;;;;14.00;6.40;;;;;;;5.00;50.45;99017.55;25098;1315;3026280;-61
2022/04/04 09:00:40;;;;;;;11.00;5.50;;;;;;;5.06;50.28;99017.42;25078;1317;3027462;-63
2022/04/04 09:03:10;;;;;;;7.30;4.10;;;;;;;5.29;49.32;99018.50;25235;1313;3026251;-62
2022/04/04 09:05:54;;;;;;;6.50;3.40;;;;;;;5.51;47.80;99017.11;25187;1313;3070280;-64
2022/04/04 09:08:25;;;;;;;8.20;4.10;;;;;;;5.66;47.59;99017.13;25097;1313;3027400;-63
2022/04/04 09:10:56;;;;;;;11.90;4.30;;;;;;;5.85;47.20;99026.10;25255;1313;3027148;-65
2022/04/04 09:13:25;;;;;;;8.40;4.40;;;;;;;5.64;48.07;99020.66;25210;1313;3027036;-64
2022/04/04 09:15:56;;;;;;;5.30;3.30;;;;;;;5.26;48.11;99043.27;25106;1313;3026266;-64
2022/04/04 09:18:37;;;;;;;5.90;3.40;;;;;;;5.05;48.75;99048.21;25064;1313;3049782;-65
2022/04/04 09:21:20;;;;;;;8.30;4.00;;;;;;;5.19;48.83;99045.48;25086;1313;3056011;-64
2022/04/04 09:23:49;;;;;;;7.10;3.70;;;;;;;5.30;47.75;99045.70;25077;1313;3051143;-64
2022/04/04 09:26:37;;;;;;;7.40;3.50;;;;;;;5.28;46.19;99048.60;25089;1312;3025854;-62
2022/04/04 09:29:17;;;;;;;8.70;4.80;;;;;;;5.39;46.12;99041.83;25100;1313;3054134;-64
2022/04/04 09:32:05;;;;;;;7.90;4.10;;;;;;;5.47;46.44;99035.90;25059;1313;3054461;-64
2022/04/04 09:34:53;;;;;;;13.70;4.70;;;;;;;5.32;46.78;99043.20;25109;1313;3071725;-64
2022/04/04 09:37:24;;;;;;;12.00;5.60;;;;;;;5.44;47.11;99043.66;25032;1313;3051602;-62
2022/04/04 09:40:17;;;;;;;8.50;5.20;;;;;;;5.50;47.37;99046.88;25118;1319;3027213;-63
2022/04/04 09:42:53;;;;;;;11.80;5.10;;;;;;;5.54;46.87;99051.05;25153;1316;3050652;-64
2022/04/04 09:45:28;;;;;;;8.60;4.80;;;;;;;5.61;46.36;99043.06;25105;1313;3057775;-62
2022/04/04 09:48:09;;;;;;;7.10;3.50;;;;;;;5.71;46.05;99057.73;25145;1313;3053343;-64
2022/04/04 09:50:44;;;;;;;5.80;2.50;;;;;;;5.56;45.06;99060.69;25056;1313;3053460;-65
2022/04/04 09:53:24;;;;;;;3.00;2.00;;;;;;;5.43;43.35;99062.67;25068;1313;3054484;-66
2022/04/04 09:55:55;;;;;;;3.90;2.70;;;;;;;5.60;42.02;99068.46;25081;1316;3068912;-65
2022/04/04 09:58:27;;;;;;;5.20;3.40;;;;;;;5.67;40.92;99058.73;25108;1313;3027181;-66
2022/04/04 10:00:58;;;;;;;7.20;3.30;;;;;;;5.64;41.58;99057.00;25112;1313;3026494;-64
2022/04/04 10:03:28;;;;;;;9.20;3.70;;;;;;;5.77;42.66;99046.52;25128;1313;3028389;-63
2022/04/04 10:06:03;;;;;;;6.90;3.40;;;;;;;5.75;42.85;99045.51;25090;1313;3026747;-63
2022/04/04 10:08:32;;;;;;;7.50;3.40;;;;;;;5.59;43.18;99045.05;25073;1313;3051614;-65
2022/04/04 10:11:01;;;;;;;7.80;2.50;;;;;;;5.63;42.32;99054.63;25096;1313;3026463;-65
2022/04/04 10:13:32;;;;;;;5.80;3.20;;;;;;;5.72;41.65;99050.89;25056;1313;3058248;-60
2022/04/04 10:16:02;;;;;;;6.50;2.60;;;;;;;5.60;40.97;99058.23;25085;1316;3026511;-61
2022/04/04 10:18:35;;;;;;;4.90;3.10;;;;;;;5.55;40.97;99056.02;25091;1313;3027174;-63
2022/04/04 10:21:05;;;;;;;6.20;2.70;;;;;;;5.55;40.79;99068.53;25098;1313;3026349;-63
2022/04/04 10:23:36;;;;;;;6.40;2.70;;;;;;;5.45;40.15;99070.71;25080;1313;3026471;-64
2022/04/04 10:26:07;;;;;;;7.40;3.80;;;;;;;5.35;40.77;99066.50;25303;1316;3027225;-63
2022/04/04 10:28:38;;;;;;;8.40;3.80;;;;;;;5.29;42.21;99074.58;25287;1313;3026359;-62
2022/04/04 10:31:20;;;;;;;15.40;4.30;;;;;;;5.33;42.20;99086.20;25370;1313;3028847;-65
2022/04/04 10:33:53;;;;;;;6.10;3.20;;;;;;;5.70;41.96;99072.54;25116;1313;3057631;-66
2022/04/04 10:36:24;;;;;;;6.50;3.40;;;;;;;5.80;40.87;99070.84;25076;1313;3029663;-62
2022/04/04 10:38:56;;;;;;;9.30;3.70;;;;;;;6.15;40.94;99073.23;25116;1313;3026738;-63
2022/04/04 10:41:29;;;;;;;9.40;4.00;;;;;;;6.11;41.43;99086.60;25098;1313;3027416;-62
2022/04/04 10:43:58;;;;;;;10.60;4.20;;;;;;;6.05;42.04;99081.17;25151;1313;3026459;-60
2022/04/04 10:46:27;;;;;;;8.50;3.70;;;;;;;5.98;41.85;99088.23;25121;1312;3026519;-63
2022/04/04 10:49:02;;;;;;;9.60;4.30;;;;;;;5.78;41.84;99084.49;25082;1313;3051207;-63
2022/04/04 10:51:35;;;;;;;10.90;3.90;;;;;;;5.79;41.57;99089.50;25118;1313;3068647;-65
2022/04/04 10:54:05;;;;;;;8.50;3.80;;;;;;;5.71;41.69;99091.05;25103;1313;3026808;-65
2022/04/04 10:56:47;;;;;;;8.80;4.00;;;;;;;6.05;41.34;99082.74;25096;1313;3029775;-64
2022/04/04 10:59:16;;;;;;;8.70;3.90;;;;;;;6.13;40.76;99081.83;25097;1313;3054901;-62
2022/04/04 11:01:50;;;;;;;7.10;3.80;;;;;;;5.95;40.95;99089.62;25214;1313;3026266;-62
2022/04/04 11:04:26;;;;;;;11.10;4.30;;;;;;;5.95;40.83;99080.23;25092;1313;3049739;-60
2022/04/04 11:10:06;;;;;;;7.70;4.10;;;;;;;6.04;39.52;99086.95;25100;1316;3053753;-63
2022/04/04 11:13:05;;;;;;;9.10;4.60;;;;;;;6.48;38.95;99082.02;25065;1316;3026412;-65
2022/04/04 11:15:55;;;;;;;8.30;4.10;;;;;;;6.71;38.71;99093.40;25044;1313;3049582;-64
2022/04/04 11:18:32;;;;;;;7.60;4.00;;;;;;;6.38;39.08;99080.41;25064;1313;3054898;-62
2022/04/04 11:21:06;;;;;;;8.00;3.00;;;;;;;6.41;40.00;99094.92;25070;1316;3051545;-61
2022/04/04 11:23:35;;;;;;;8.20;4.10;;;;;;;6.46;40.26;99100.77;25163;1313;3026507;-61
2022/04/04 11:26:04;;;;;;;8.20;4.10;;;;;;;6.75;39.17;99085.89;25096;1313;3026058;-65
2022/04/04 11:28:38;;;;;;;9.50;4.00;;;;;;;6.91;38.21;99085.08;25070;1313;3054015;-61
2022/04/04 11:31:09;;;;;;;8.90;3.00;;;;;;;6.76;37.47;99078.55;25132;1313;3026772;-64
2022/04/04 11:33:47;;;;;;;5.70;3.60;;;;;;;6.49;37.32;99080.23;25103;1313;3027208;-63
2022/04/04 11:36:27;;;;;;;8.00;3.90;;;;;;;6.64;37.55;99086.13;25111;1313;3051754;-63
2022/04/04 11:39:03;;;;;;;9.10;4.00;;;;;;;6.61;37.31;99088.49;25136;1313;3052542;-60
2022/04/04 11:41:36;;;;;;;7.70;3.80;;;;;;;6.53;37.37;99091.16;25146;1316;3071171;-64
2022/04/04 11:44:05;;;;;;;8.50;3.30;;;;;;;6.54;37.36;99093.05;25046;1313;3026058;-61
2022/04/04 11:46:35;;;;;;;6.70;3.50;;;;;;;6.45;38.00;99093.64;25371;1313;3026175;-60
2022/04/04 11:49:07;;;;;;;11.30;3.90;;;;;;;6.77;37.64;99089.11;25439;1310;3026389;-62